sensor_id;sensor_type;location;lat;lon;timestamp;temperature;humidity
24224;DHT22;12359;49.716;9.212;2022-09-09T00:06:52;14.90;38.30
24224;DHT22;12359;49.716;9.212;2022-09-09T00:09:22;14.90;38.80
24224;DHT22;12359;49.716;9.212;2022-09-09T00:11:58;14.90;38.10
24224;DHT22;12359;49.716;9.212;2022-09-09T00:17:06;14.90;39.90
24224;DHT22;12359;49.716;9.212;2022-09-09T00:19:46;14.90;37.10
24224;DHT22;12359;49.716;9.212;2022-09-09T00:22:26;14.80;34.80
24224;DHT22;12359;49.716;9.212;2022-09-09T00:24:54;14.70;32.70
24224;DHT22;12359;49.716;9.212;2022-09-09T00:27:31;14.60;38.10
24224;DHT22;12359;49.716;9.212;2022-09-09T00:32:29;14.60;44.50
24224;DHT22;12359;49.716;9.212;2022-09-09T00:35:02;14.60;47.30
24224;DHT22;12359;49.716;9.212;2022-09-09T00:37:28;14.50;50.60
24224;DHT22;12359;49.716;9.212;2022-09-09T00:39:59;14.50;53.60
24224;DHT22;12359;49.716;9.212;2022-09-09T00:42:42;14.50;55.10
24224;DHT22;12359;49.716;9.212;2022-09-09T00:47:51;14.40;56.90
24224;DHT22;12359;49.716;9.212;2022-09-09T00:58:25;14.30;67.80
24224;DHT22;12359;49.716;9.212;2022-09-09T01:01:14;14.20;71.50
24224;DHT22;12359;49.716;9.212;2022-09-09T01:03:54;14.20;74.60
24224;DHT22;12359;49.716;9.212;2022-09-09T01:06:34;14.20;76.80
24224;DHT22;12359;49.716;9.212;2022-09-09T01:17:26;14.20;79.30
24224;DHT22;12359;49.716;9.212;2022-09-09T01:28:11;14.20;80.40
24224;DHT22;12359;49.716;9.212;2022-09-09T01:30:40;14.20;79.50
24224;DHT22;12359;49.716;9.212;2022-09-09T01:33:13;14.20;77.60
24224;DHT22;12359;49.716;9.212;2022-09-09T01:38:26;14.40;77.60
24224;DHT22;12359;49.716;9.212;2022-09-09T01:40:53;14.50;77.10
24224;DHT22;12359;49.716;9.212;2022-09-09T01:43:24;14.60;75.30
24224;DHT22;12359;49.716;9.212;2022-09-09T01:45:53;14.70;74.70
24224;DHT22;12359;49.716;9.212;2022-09-09T01:48:21;14.70;70.90
24224;DHT22;12359;49.716;9.212;2022-09-09T01:50:48;14.80;71.10
24224;DHT22;12359;49.716;9.212;2022-09-09T01:53:16;14.80;70.30
24224;DHT22;12359;49.716;9.212;2022-09-09T01:55:55;14.90;68.70
24224;DHT22;12359;49.716;9.212;2022-09-09T02:01:21;15.00;63.90
24224;DHT22;12359;49.716;9.212;2022-09-09T02:03:56;15.00;64.30
24224;DHT22;12359;49.716;9.212;2022-09-09T02:06:37;15.10;63.80
24224;DHT22;12359;49.716;9.212;2022-09-09T02:09:06;15.10;65.70
24224;DHT22;12359;49.716;9.212;2022-09-09T02:11:33;15.10;65.10
24224;DHT22;12359;49.716;9.212;2022-09-09T02:14:08;15.10;64.00
24224;DHT22;12359;49.716;9.212;2022-09-09T02:17:03;15.10;62.90
24224;DHT22;12359;49.716;9.212;2022-09-09T02:19:56;15.00;63.40
24224;DHT22;12359;49.716;9.212;2022-09-09T02:22:22;14.90;64.20
24224;DHT22;12359;49.716;9.212;2022-09-09T02:24:50;14.90;67.00
24224;DHT22;12359;49.716;9.212;2022-09-09T02:27:20;14.80;66.80
24224;DHT22;12359;49.716;9.212;2022-09-09T02:29:48;14.90;68.30
24224;DHT22;12359;49.716;9.212;2022-09-09T02:32:18;14.90;69.30
24224;DHT22;12359;49.716;9.212;2022-09-09T02:34:48;14.90;68.80
24224;DHT22;12359;49.716;9.212;2022-09-09T02:37:17;14.80;71.10
24224;DHT22;12359;49.716;9.212;2022-09-09T02:39:44;14.90;70.90
24224;DHT22;12359;49.716;9.212;2022-09-09T02:42:09;14.80;72.60
24224;DHT22;12359;49.716;9.212;2022-09-09T02:44:35;14.80;73.20
24224;DHT22;12359;49.716;9.212;2022-09-09T02:52:06;14.80;76.00
24224;DHT22;12359;49.716;9.212;2022-09-09T02:54:34;14.80;75.40
24224;DHT22;12359;49.716;9.212;2022-09-09T02:57:11;14.80;75.50
24224;DHT22;12359;49.716;9.212;2022-09-09T02:59:38;14.80;75.30
24224;DHT22;12359;49.716;9.212;2022-09-09T03:02:04;14.90;74.70
24224;DHT22;12359;49.716;9.212;2022-09-09T03:04:30;14.90;74.70
24224;DHT22;12359;49.716;9.212;2022-09-09T03:06:57;14.90;75.60
24224;DHT22;12359;49.716;9.212;2022-09-09T03:09:24;14.90;73.60
24224;DHT22;12359;49.716;9.212;2022-09-09T03:11:51;14.90;74.50
24224;DHT22;12359;49.716;9.212;2022-09-09T03:14:17;15.00;74.40
24224;DHT22;12359;49.716;9.212;2022-09-09T03:16:46;15.00;73.20
24224;DHT22;12359;49.716;9.212;2022-09-09T03:19:12;15.00;72.20
24224;DHT22;12359;49.716;9.212;2022-09-09T03:21:38;15.00;73.10
24224;DHT22;12359;49.716;9.212;2022-09-09T03:24:04;15.10;72.60
24224;DHT22;12359;49.716;9.212;2022-09-09T03:26:30;15.10;70.60
24224;DHT22;12359;49.716;9.212;2022-09-09T03:28:57;15.10;71.30
24224;DHT22;12359;49.716;9.212;2022-09-09T03:31:23;15.10;71.60
24224;DHT22;12359;49.716;9.212;2022-09-09T03:33:48;15.00;69.00
24224;DHT22;12359;49.716;9.212;2022-09-09T03:36:15;15.10;70.60
24224;DHT22;12359;49.716;9.212;2022-09-09T03:38:41;15.10;68.80
24224;DHT22;12359;49.716;9.212;2022-09-09T03:41:07;15.10;68.10
24224;DHT22;12359;49.716;9.212;2022-09-09T03:43:33;15.10;67.10
24224;DHT22;12359;49.716;9.212;2022-09-09T03:45:59;15.10;68.40
24224;DHT22;12359;49.716;9.212;2022-09-09T03:48:26;15.10;69.20
24224;DHT22;12359;49.716;9.212;2022-09-09T03:50:54;15.10;66.30
24224;DHT22;12359;49.716;9.212;2022-09-09T03:53:23;15.10;66.40
24224;DHT22;12359;49.716;9.212;2022-09-09T03:55:52;15.10;65.10
24224;DHT22;12359;49.716;9.212;2022-09-09T03:58:23;15.00;65.30
24224;DHT22;12359;49.716;9.212;2022-09-09T04:00:57;15.00;63.80
24224;DHT22;12359;49.716;9.212;2022-09-09T04:03:24;15.00;64.60
24224;DHT22;12359;49.716;9.212;2022-09-09T04:05:53;14.90;63.10
24224;DHT22;12359;49.716;9.212;2022-09-09T04:08:20;14.80;66.50
24224;DHT22;12359;49.716;9.212;2022-09-09T04:10:49;14.80;67.20
24224;DHT22;12359;49.716;9.212;2022-09-09T04:13:16;14.70;70.00
24224;DHT22;12359;49.716;9.212;2022-09-09T04:15:44;14.70;71.40
24224;DHT22;12359;49.716;9.212;2022-09-09T04:18:15;14.70;70.30
24224;DHT22;12359;49.716;9.212;2022-09-09T04:20:40;14.70;71.70
24224;DHT22;12359;49.716;9.212;2022-09-09T04:23:08;14.70;71.70
24224;DHT22;12359;49.716;9.212;2022-09-09T04:25:34;14.70;71.90
24224;DHT22;12359;49.716;9.212;2022-09-09T04:28:00;14.70;72.50
24224;DHT22;12359;49.716;9.212;2022-09-09T04:30:26;14.70;71.50
24224;DHT22;12359;49.716;9.212;2022-09-09T04:32:53;14.70;69.70
24224;DHT22;12359;49.716;9.212;2022-09-09T04:35:19;14.70;70.20
24224;DHT22;12359;49.716;9.212;2022-09-09T04:37:45;14.80;68.60
24224;DHT22;12359;49.716;9.212;2022-09-09T04:40:11;14.80;69.00
24224;DHT22;12359;49.716;9.212;2022-09-09T04:42:38;14.80;67.50
24224;DHT22;12359;49.716;9.212;2022-09-09T04:45:05;14.80;65.30
24224;DHT22;12359;49.716;9.212;2022-09-09T04:47:31;14.80;67.00
24224;DHT22;12359;49.716;9.212;2022-09-09T04:49:57;14.80;66.10
24224;DHT22;12359;49.716;9.212;2022-09-09T04:52:23;14.70;65.20
24224;DHT22;12359;49.716;9.212;2022-09-09T04:54:48;14.70;65.60
24224;DHT22;12359;49.716;9.212;2022-09-09T04:57:14;14.70;66.70
24224;DHT22;12359;49.716;9.212;2022-09-09T04:59:39;14.70;65.60
24224;DHT22;12359;49.716;9.212;2022-09-09T05:02:06;14.70;66.50
24224;DHT22;12359;49.716;9.212;2022-09-09T05:04:31;14.70;67.50
24224;DHT22;12359;49.716;9.212;2022-09-09T05:06:58;14.70;68.40
24224;DHT22;12359;49.716;9.212;2022-09-09T05:09:24;14.70;69.50
24224;DHT22;12359;49.716;9.212;2022-09-09T05:11:50;14.80;67.60
24224;DHT22;12359;49.716;9.212;2022-09-09T05:14:17;14.80;68.60
24224;DHT22;12359;49.716;9.212;2022-09-09T05:16:45;14.90;65.30
24224;DHT22;12359;49.716;9.212;2022-09-09T05:19:10;15.00;65.90
24224;DHT22;12359;49.716;9.212;2022-09-09T05:21:36;15.10;66.00
24224;DHT22;12359;49.716;9.212;2022-09-09T05:24:02;15.10;63.40
24224;DHT22;12359;49.716;9.212;2022-09-09T05:26:28;15.10;65.10
24224;DHT22;12359;49.716;9.212;2022-09-09T05:28:55;15.20;62.60
24224;DHT22;12359;49.716;9.212;2022-09-09T05:31:21;15.30;62.40
24224;DHT22;12359;49.716;9.212;2022-09-09T05:33:47;15.30;59.30
24224;DHT22;12359;49.716;9.212;2022-09-09T05:36:19;15.30;56.80
24224;DHT22;12359;49.716;9.212;2022-09-09T05:38:45;15.40;55.40
24224;DHT22;12359;49.716;9.212;2022-09-09T05:41:12;15.40;50.70
24224;DHT22;12359;49.716;9.212;2022-09-09T05:43:38;15.50;48.10
24224;DHT22;12359;49.716;9.212;2022-09-09T05:46:09;15.50;47.70
24224;DHT22;12359;49.716;9.212;2022-09-09T05:48:42;15.50;40.50
24224;DHT22;12359;49.716;9.212;2022-09-09T05:51:10;15.60;38.30
24224;DHT22;12359;49.716;9.212;2022-09-09T05:53:38;15.60;27.70
24224;DHT22;12359;49.716;9.212;2022-09-09T05:56:12;15.70;29.00
24224;DHT22;12359;49.716;9.212;2022-09-09T05:58:40;15.80;28.40
24224;DHT22;12359;49.716;9.212;2022-09-09T06:03:33;16.00;20.10
24224;DHT22;12359;49.716;9.212;2022-09-09T06:06:01;16.60;22.30
24224;DHT22;12359;49.716;9.212;2022-09-09T06:08:27;17.50;1.00
24224;DHT22;12359;49.716;9.212;2022-09-09T06:10:53;18.10;1.00
24224;DHT22;12359;49.716;9.212;2022-09-09T06:13:18;18.70;99.90
24224;DHT22;12359;49.716;9.212;2022-09-09T06:15:51;19.80;99.90
24224;DHT22;12359;49.716;9.212;2022-09-09T06:18:18;20.40;1.00
24224;DHT22;12359;49.716;9.212;2022-09-09T06:20:56;21.20;1.00
24224;DHT22;12359;49.716;9.212;2022-09-09T06:23:22;21.60;48.20
24224;DHT22;12359;49.716;9.212;2022-09-09T06:25:48;21.20;31.00
24224;DHT22;12359;49.716;9.212;2022-09-09T06:28:15;20.90;99.90
24224;DHT22;12359;49.716;9.212;2022-09-09T06:30:42;20.60;1.00
24224;DHT22;12359;49.716;9.212;2022-09-09T06:33:08;20.70;99.90
24224;DHT22;12359;49.716;9.212;2022-09-09T06:35:34;21.30;99.90
24224;DHT22;12359;49.716;9.212;2022-09-09T06:38:00;22.00;1.00
24224;DHT22;12359;49.716;9.212;2022-09-09T06:40:26;22.00;3.60
24224;DHT22;12359;49.716;9.212;2022-09-09T06:42:51;22.40;1.00
24224;DHT22;12359;49.716;9.212;2022-09-09T06:45:17;22.40;99.90
24224;DHT22;12359;49.716;9.212;2022-09-09T06:47:43;22.70;99.90
24224;DHT22;12359;49.716;9.212;2022-09-09T06:50:09;22.90;99.90
24224;DHT22;12359;49.716;9.212;2022-09-09T06:52:36;23.80;14.50
24224;DHT22;12359;49.716;9.212;2022-09-09T06:55:02;24.20;1.00
24224;DHT22;12359;49.716;9.212;2022-09-09T06:57:28;24.70;99.90
24224;DHT22;12359;49.716;9.212;2022-09-09T06:59:53;24.60;99.90
24224;DHT22;12359;49.716;9.212;2022-09-09T07:02:19;24.10;99.90
24224;DHT22;12359;49.716;9.212;2022-09-09T07:04:45;23.30;99.90
24224;DHT22;12359;49.716;9.212;2022-09-09T07:07:11;22.20;1.00
24224;DHT22;12359;49.716;9.212;2022-09-09T07:09:39;21.30;99.90
24224;DHT22;12359;49.716;9.212;2022-09-09T07:12:06;20.40;1.00
24224;DHT22;12359;49.716;9.212;2022-09-09T07:14:32;20.10;99.90
24224;DHT22;12359;49.716;9.212;2022-09-09T07:16:59;20.10;1.00
24224;DHT22;12359;49.716;9.212;2022-09-09T07:19:25;20.10;33.00
24224;DHT22;12359;49.716;9.212;2022-09-09T07:21:51;19.70;99.90
24224;DHT22;12359;49.716;9.212;2022-09-09T07:24:17;19.60;64.40
24224;DHT22;12359;49.716;9.212;2022-09-09T07:26:42;19.30;1.00
24224;DHT22;12359;49.716;9.212;2022-09-09T07:29:09;19.10;99.90
24224;DHT22;12359;49.716;9.212;2022-09-09T07:31:39;19.60;1.00
24224;DHT22;12359;49.716;9.212;2022-09-09T07:34:05;20.60;1.00
24224;DHT22;12359;49.716;9.212;2022-09-09T07:36:33;21.90;1.00
24224;DHT22;12359;49.716;9.212;2022-09-09T07:39:10;22.70;99.90
24224;DHT22;12359;49.716;9.212;2022-09-09T07:41:45;23.10;99.90
24224;DHT22;12359;49.716;9.212;2022-09-09T07:44:13;23.90;99.90
24224;DHT22;12359;49.716;9.212;2022-09-09T07:46:40;24.70;1.00
24224;DHT22;12359;49.716;9.212;2022-09-09T07:49:07;25.60;99.90
24224;DHT22;12359;49.716;9.212;2022-09-09T07:51:36;25.50;99.90
24224;DHT22;12359;49.716;9.212;2022-09-09T07:54:04;25.90;99.90
24224;DHT22;12359;49.716;9.212;2022-09-09T07:56:30;26.20;99.90
24224;DHT22;12359;49.716;9.212;2022-09-09T07:58:57;26.00;99.90
24224;DHT22;12359;49.716;9.212;2022-09-09T08:01:29;25.40;99.90
24224;DHT22;12359;49.716;9.212;2022-09-09T08:04:00;24.90;99.90
24224;DHT22;12359;49.716;9.212;2022-09-09T08:06:31;24.70;99.90
24224;DHT22;12359;49.716;9.212;2022-09-09T08:08:59;24.50;99.90
24224;DHT22;12359;49.716;9.212;2022-09-09T08:11:27;24.30;99.90
24224;DHT22;12359;49.716;9.212;2022-09-09T08:13:53;24.10;99.90
24224;DHT22;12359;49.716;9.212;2022-09-09T08:16:22;24.80;99.90
24224;DHT22;12359;49.716;9.212;2022-09-09T08:18:52;25.10;99.90
24224;DHT22;12359;49.716;9.212;2022-09-09T08:21:24;25.50;99.90
24224;DHT22;12359;49.716;9.212;2022-09-09T08:23:52;25.50;99.90
24224;DHT22;12359;49.716;9.212;2022-09-09T08:26:20;25.60;99.90
24224;DHT22;12359;49.716;9.212;2022-09-09T08:28:54;25.40;99.90
24224;DHT22;12359;49.716;9.212;2022-09-09T08:31:26;25.50;99.90
24224;DHT22;12359;49.716;9.212;2022-09-09T08:33:54;25.90;99.90
24224;DHT22;12359;49.716;9.212;2022-09-09T08:36:23;26.00;99.90
24224;DHT22;12359;49.716;9.212;2022-09-09T08:38:51;25.50;99.90
24224;DHT22;12359;49.716;9.212;2022-09-09T08:52:51;23.00;99.90
24224;DHT22;12359;49.716;9.212;2022-09-09T08:57:57;22.40;1.00
24224;DHT22;12359;49.716;9.212;2022-09-09T09:00:34;22.30;1.00
24224;DHT22;12359;49.716;9.212;2022-09-09T09:11:51;22.60;99.90
24224;DHT22;12359;49.716;9.212;2022-09-09T09:14:21;23.70;86.10
24224;DHT22;12359;49.716;9.212;2022-09-09T09:17:00;24.50;1.00
24224;DHT22;12359;49.716;9.212;2022-09-09T09:19:28;24.80;99.90
24224;DHT22;12359;49.716;9.212;2022-09-09T09:27:40;23.90;99.90
24224;DHT22;12359;49.716;9.212;2022-09-09T09:30:23;23.10;99.90
24224;DHT22;12359;49.716;9.212;2022-09-09T09:33:02;22.50;99.90
24224;DHT22;12359;49.716;9.212;2022-09-09T09:35:30;21.50;99.90
24224;DHT22;12359;49.716;9.212;2022-09-09T09:37:56;20.90;1.00
24224;DHT22;12359;49.716;9.212;2022-09-09T09:40:22;20.40;99.90
24224;DHT22;12359;49.716;9.212;2022-09-09T09:42:52;19.90;99.90
24224;DHT22;12359;49.716;9.212;2022-09-09T09:45:41;19.50;99.90
24224;DHT22;12359;49.716;9.212;2022-09-09T09:48:12;19.30;63.40
24224;DHT22;12359;49.716;9.212;2022-09-09T09:51:02;19.20;99.90
24224;DHT22;12359;49.716;9.212;2022-09-09T09:53:30;19.20;99.90
24224;DHT22;12359;49.716;9.212;2022-09-09T09:58:32;20.00;1.00
24224;DHT22;12359;49.716;9.212;2022-09-09T10:01:00;20.00;94.90
24224;DHT22;12359;49.716;9.212;2022-09-09T10:03:31;20.40;99.90
24224;DHT22;12359;49.716;9.212;2022-09-09T10:05:58;20.90;99.90
24224;DHT22;12359;49.716;9.212;2022-09-09T10:08:25;21.10;1.00
24224;DHT22;12359;49.716;9.212;2022-09-09T10:11:27;21.00;99.90
24224;DHT22;12359;49.716;9.212;2022-09-09T10:14:21;20.90;52.80
24224;DHT22;12359;49.716;9.212;2022-09-09T10:19:29;21.60;99.90
24224;DHT22;12359;49.716;9.212;2022-09-09T10:22:26;21.80;99.90
24224;DHT22;12359;49.716;9.212;2022-09-09T10:30:24;22.40;12.40
24224;DHT22;12359;49.716;9.212;2022-09-09T10:33:13;22.00;1.00
24224;DHT22;12359;49.716;9.212;2022-09-09T10:35:55;21.40;48.20
24224;DHT22;12359;49.716;9.212;2022-09-09T10:38:30;20.80;1.00
24224;DHT22;12359;49.716;9.212;2022-09-09T10:55:01;21.30;1.00
24224;DHT22;12359;49.716;9.212;2022-09-09T10:57:41;21.30;11.90
24224;DHT22;12359;49.716;9.212;2022-09-09T11:03:03;21.20;99.90
24224;DHT22;12359;49.716;9.212;2022-09-09T11:05:46;21.10;3.90
24224;DHT22;12359;49.716;9.212;2022-09-09T11:08:34;21.20;1.00
24224;DHT22;12359;49.716;9.212;2022-09-09T11:16:32;22.10;1.00
24224;DHT22;12359;49.716;9.212;2022-09-09T11:21:48;22.80;1.00
24224;DHT22;12359;49.716;9.212;2022-09-09T11:24:31;23.00;60.80
24224;DHT22;12359;49.716;9.212;2022-09-09T11:27:30;23.60;12.40
24224;DHT22;12359;49.716;9.212;2022-09-09T11:30:21;23.70;1.00
24224;DHT22;12359;49.716;9.212;2022-09-09T11:40:57;25.00;1.00
24224;DHT22;12359;49.716;9.212;2022-09-09T11:43:30;24.50;1.00
24224;DHT22;12359;49.716;9.212;2022-09-09T11:45:59;24.10;3.30
24224;DHT22;12359;49.716;9.212;2022-09-09T11:48:34;24.10;1.00
24224;DHT22;12359;49.716;9.212;2022-09-09T11:53:58;23.60;1.00
24224;DHT22;12359;49.716;9.212;2022-09-09T11:56:56;23.50;1.00
24224;DHT22;12359;49.716;9.212;2022-09-09T11:59:32;23.10;1.00
24224;DHT22;12359;49.716;9.212;2022-09-09T12:02:13;22.70;99.90
24224;DHT22;12359;49.716;9.212;2022-09-09T12:07:33;23.20;1.00
24224;DHT22;12359;49.716;9.212;2022-09-09T12:12:47;23.80;99.90
24224;DHT22;12359;49.716;9.212;2022-09-09T12:17:50;23.70;99.90
24224;DHT22;12359;49.716;9.212;2022-09-09T12:20:37;23.60;99.90
24224;DHT22;12359;49.716;9.212;2022-09-09T12:25:51;23.80;99.90
24224;DHT22;12359;49.716;9.212;2022-09-09T12:31:29;23.90;99.90
24224;DHT22;12359;49.716;9.212;2022-09-09T12:34:15;24.40;99.90
24224;DHT22;12359;49.716;9.212;2022-09-09T12:36:44;24.90;99.90
24224;DHT22;12359;49.716;9.212;2022-09-09T12:39:28;25.00;99.90
24224;DHT22;12359;49.716;9.212;2022-09-09T12:41:55;24.90;99.90
24224;DHT22;12359;49.716;9.212;2022-09-09T12:44:24;24.70;99.90
24224;DHT22;12359;49.716;9.212;2022-09-09T12:46:51;24.70;99.90
24224;DHT22;12359;49.716;9.212;2022-09-09T12:49:38;24.50;99.90
24224;DHT22;12359;49.716;9.212;2022-09-09T12:52:16;24.40;99.90
24224;DHT22;12359;49.716;9.212;2022-09-09T12:54:45;24.30;99.90
24224;DHT22;12359;49.716;9.212;2022-09-09T12:57:13;24.00;99.90
24224;DHT22;12359;49.716;9.212;2022-09-09T12:59:42;23.80;99.90
24224;DHT22;12359;49.716;9.212;2022-09-09T13:02:26;23.80;99.90
24224;DHT22;12359;49.716;9.212;2022-09-09T13:04:52;24.10;99.90
24224;DHT22;12359;49.716;9.212;2022-09-09T13:07:19;24.10;99.90
24224;DHT22;12359;49.716;9.212;2022-09-09T13:09:47;24.20;99.90
24224;DHT22;12359;49.716;9.212;2022-09-09T13:12:21;24.10;99.90
24224;DHT22;12359;49.716;9.212;2022-09-09T13:14:50;23.90;99.90
24224;DHT22;12359;49.716;9.212;2022-09-09T13:17:28;23.60;99.90
24224;DHT22;12359;49.716;9.212;2022-09-09T13:19:55;23.40;99.90
24224;DHT22;12359;49.716;9.212;2022-09-09T13:22:35;23.00;99.90
24224;DHT22;12359;49.716;9.212;2022-09-09T13:27:33;22.70;99.90
24224;DHT22;12359;49.716;9.212;2022-09-09T13:30:00;22.50;99.90
24224;DHT22;12359;49.716;9.212;2022-09-09T13:32:28;22.40;99.90
24224;DHT22;12359;49.716;9.212;2022-09-09T13:34:59;21.90;25.80
24224;DHT22;12359;49.716;9.212;2022-09-09T13:37:36;21.30;1.00
24224;DHT22;12359;49.716;9.212;2022-09-09T13:40:04;20.70;1.00
24224;DHT22;12359;49.716;9.212;2022-09-09T13:42:37;20.30;24.40
24224;DHT22;12359;49.716;9.212;2022-09-09T13:45:06;20.10;99.90
24224;DHT22;12359;49.716;9.212;2022-09-09T13:47:41;20.30;1.00
24224;DHT22;12359;49.716;9.212;2022-09-09T13:50:27;20.60;99.90
24224;DHT22;12359;49.716;9.212;2022-09-09T13:52:55;20.80;99.90
24224;DHT22;12359;49.716;9.212;2022-09-09T13:55:24;20.90;99.90
24224;DHT22;12359;49.716;9.212;2022-09-09T13:58:01;20.80;1.00
24224;DHT22;12359;49.716;9.212;2022-09-09T14:00:29;20.70;43.20
24224;DHT22;12359;49.716;9.212;2022-09-09T14:02:55;20.60;99.90
24224;DHT22;12359;49.716;9.212;2022-09-09T14:05:22;20.40;99.90
24224;DHT22;12359;49.716;9.212;2022-09-09T14:07:48;20.20;99.90
24224;DHT22;12359;49.716;9.212;2022-09-09T14:10:15;20.10;99.90
24224;DHT22;12359;49.716;9.212;2022-09-09T14:12:40;20.00;1.00
24224;DHT22;12359;49.716;9.212;2022-09-09T14:15:09;20.00;1.00
24224;DHT22;12359;49.716;9.212;2022-09-09T14:17:35;19.80;1.00
24224;DHT22;12359;49.716;9.212;2022-09-09T14:20:03;19.50;1.00
24224;DHT22;12359;49.716;9.212;2022-09-09T14:22:31;19.50;1.00
24224;DHT22;12359;49.716;9.212;2022-09-09T14:24:56;19.40;1.00
24224;DHT22;12359;49.716;9.212;2022-09-09T14:27:23;19.30;1.00
24224;DHT22;12359;49.716;9.212;2022-09-09T14:29:48;19.20;1.00
24224;DHT22;12359;49.716;9.212;2022-09-09T14:32:14;19.20;1.00
24224;DHT22;12359;49.716;9.212;2022-09-09T14:34:39;19.00;1.00
24224;DHT22;12359;49.716;9.212;2022-09-09T14:37:05;18.80;1.00
24224;DHT22;12359;49.716;9.212;2022-09-09T14:39:31;18.70;1.00
24224;DHT22;12359;49.716;9.212;2022-09-09T14:41:57;18.70;1.00
24224;DHT22;12359;49.716;9.212;2022-09-09T14:44:23;18.60;1.00
24224;DHT22;12359;49.716;9.212;2022-09-09T14:46:49;18.60;1.00
24224;DHT22;12359;49.716;9.212;2022-09-09T14:49:15;18.70;1.00
24224;DHT22;12359;49.716;9.212;2022-09-09T14:51:41;18.80;6.20
24224;DHT22;12359;49.716;9.212;2022-09-09T14:54:07;18.80;24.30
24224;DHT22;12359;49.716;9.212;2022-09-09T14:56:33;18.90;18.00
24224;DHT22;12359;49.716;9.212;2022-09-09T14:59:02;19.30;9.50
24224;DHT22;12359;49.716;9.212;2022-09-09T15:01:28;19.60;1.00
24224;DHT22;12359;49.716;9.212;2022-09-09T15:03:56;19.80;1.00
24224;DHT22;12359;49.716;9.212;2022-09-09T15:06:24;20.10;1.00
24224;DHT22;12359;49.716;9.212;2022-09-09T15:08:52;20.30;1.00
24224;DHT22;12359;49.716;9.212;2022-09-09T15:11:18;20.30;99.90
24224;DHT22;12359;49.716;9.212;2022-09-09T15:13:44;20.10;99.90
24224;DHT22;12359;49.716;9.212;2022-09-09T15:16:15;20.30;99.90
24224;DHT22;12359;49.716;9.212;2022-09-09T15:18:42;20.40;99.90
24224;DHT22;12359;49.716;9.212;2022-09-09T15:21:09;20.20;99.90
24224;DHT22;12359;49.716;9.212;2022-09-09T15:23:35;20.20;99.90
24224;DHT22;12359;49.716;9.212;2022-09-09T15:26:02;20.00;99.90
24224;DHT22;12359;49.716;9.212;2022-09-09T15:28:28;20.00;99.90
24224;DHT22;12359;49.716;9.212;2022-09-09T15:30:54;20.00;99.90
24224;DHT22;12359;49.716;9.212;2022-09-09T15:33:22;19.80;99.90
24224;DHT22;12359;49.716;9.212;2022-09-09T15:35:48;19.80;99.90
24224;DHT22;12359;49.716;9.212;2022-09-09T15:38:14;19.60;1.00
24224;DHT22;12359;49.716;9.212;2022-09-09T15:40:40;19.40;99.90
24224;DHT22;12359;49.716;9.212;2022-09-09T15:43:06;19.30;1.00
24224;DHT22;12359;49.716;9.212;2022-09-09T15:45:33;19.20;99.90
24224;DHT22;12359;49.716;9.212;2022-09-09T15:48:03;19.10;99.90
24224;DHT22;12359;49.716;9.212;2022-09-09T15:50:29;19.10;99.90
24224;DHT22;12359;49.716;9.212;2022-09-09T15:52:59;19.00;99.90
24224;DHT22;12359;49.716;9.212;2022-09-09T15:55:25;18.90;1.00
24224;DHT22;12359;49.716;9.212;2022-09-09T15:57:51;18.90;1.00
24224;DHT22;12359;49.716;9.212;2022-09-09T16:00:20;18.80;1.00
24224;DHT22;12359;49.716;9.212;2022-09-09T16:02:48;18.50;1.00
24224;DHT22;12359;49.716;9.212;2022-09-09T16:05:14;18.60;1.00
24224;DHT22;12359;49.716;9.212;2022-09-09T16:07:39;18.60;1.00
24224;DHT22;12359;49.716;9.212;2022-09-09T16:10:08;18.50;1.00
24224;DHT22;12359;49.716;9.212;2022-09-09T16:12:33;18.50;5.70
24224;DHT22;12359;49.716;9.212;2022-09-09T16:14:59;18.50;17.10
24224;DHT22;12359;49.716;9.212;2022-09-09T16:17:25;18.40;15.00
24224;DHT22;12359;49.716;9.212;2022-09-09T16:19:51;18.30;14.40
24224;DHT22;12359;49.716;9.212;2022-09-09T16:22:16;18.30;16.20
24224;DHT22;12359;49.716;9.212;2022-09-09T16:24:43;18.30;10.90
24224;DHT22;12359;49.716;9.212;2022-09-09T16:27:10;18.30;22.50
24224;DHT22;12359;49.716;9.212;2022-09-09T16:29:36;18.10;18.40
24224;DHT22;12359;49.716;9.212;2022-09-09T16:32:02;18.10;1.00
24224;DHT22;12359;49.716;9.212;2022-09-09T16:34:28;18.10;1.00
24224;DHT22;12359;49.716;9.212;2022-09-09T16:36:53;18.10;1.00
24224;DHT22;12359;49.716;9.212;2022-09-09T16:39:20;18.10;1.00
24224;DHT22;12359;49.716;9.212;2022-09-09T16:41:47;18.10;13.40
24224;DHT22;12359;49.716;9.212;2022-09-09T16:44:15;18.00;1.00
24224;DHT22;12359;49.716;9.212;2022-09-09T16:46:43;18.00;1.00
24224;DHT22;12359;49.716;9.212;2022-09-09T16:49:11;17.90;1.00
24224;DHT22;12359;49.716;9.212;2022-09-09T16:51:42;17.80;1.00
24224;DHT22;12359;49.716;9.212;2022-09-09T16:54:09;17.80;1.00
24224;DHT22;12359;49.716;9.212;2022-09-09T16:56:38;17.70;1.00
24224;DHT22;12359;49.716;9.212;2022-09-09T16:59:14;17.60;1.00
24224;DHT22;12359;49.716;9.212;2022-09-09T17:01:44;17.60;1.00
24224;DHT22;12359;49.716;9.212;2022-09-09T17:04:16;17.60;1.00
24224;DHT22;12359;49.716;9.212;2022-09-09T17:06:46;17.60;12.30
24224;DHT22;12359;49.716;9.212;2022-09-09T17:09:15;17.60;1.00
24224;DHT22;12359;49.716;9.212;2022-09-09T17:11:40;17.50;1.00
24224;DHT22;12359;49.716;9.212;2022-09-09T17:14:08;17.50;1.00
24224;DHT22;12359;49.716;9.212;2022-09-09T17:16:35;17.50;1.00
24224;DHT22;12359;49.716;9.212;2022-09-09T17:19:01;17.50;1.00
24224;DHT22;12359;49.716;9.212;2022-09-09T17:21:29;17.50;1.00
24224;DHT22;12359;49.716;9.212;2022-09-09T17:23:56;17.50;2.30
24224;DHT22;12359;49.716;9.212;2022-09-09T17:26:28;17.50;1.00
24224;DHT22;12359;49.716;9.212;2022-09-09T17:28:54;17.50;6.30
24224;DHT22;12359;49.716;9.212;2022-09-09T17:31:21;17.40;17.00
24224;DHT22;12359;49.716;9.212;2022-09-09T17:33:50;17.40;24.80
24224;DHT22;12359;49.716;9.212;2022-09-09T17:36:24;17.30;33.60
24224;DHT22;12359;49.716;9.212;2022-09-09T17:38:51;17.20;31.60
24224;DHT22;12359;49.716;9.212;2022-09-09T17:41:21;17.20;30.10
24224;DHT22;12359;49.716;9.212;2022-09-09T17:43:48;17.10;33.40
24224;DHT22;12359;49.716;9.212;2022-09-09T17:46:27;17.10;34.40
24224;DHT22;12359;49.716;9.212;2022-09-09T17:48:57;16.90;36.40
24224;DHT22;12359;49.716;9.212;2022-09-09T17:51:25;16.80;42.70
24224;DHT22;12359;49.716;9.212;2022-09-09T17:53:54;16.70;42.90
24224;DHT22;12359;49.716;9.212;2022-09-09T17:56:22;16.70;44.60
24224;DHT22;12359;49.716;9.212;2022-09-09T17:58:49;16.60;43.00
24224;DHT22;12359;49.716;9.212;2022-09-09T18:01:21;16.50;45.70
24224;DHT22;12359;49.716;9.212;2022-09-09T18:03:48;16.50;47.10
24224;DHT22;12359;49.716;9.212;2022-09-09T18:06:20;16.50;49.50
24224;DHT22;12359;49.716;9.212;2022-09-09T18:08:50;16.40;49.00
24224;DHT22;12359;49.716;9.212;2022-09-09T18:11:18;16.30;51.00
24224;DHT22;12359;49.716;9.212;2022-09-09T18:13:49;16.20;50.70